sensor_id;sensor_type;location;lat;lon;timestamp;pressure;altitude;pressure_sealevel;temperature;humidity
45927;BME280;31639;47.614;19.684;2022-08-19T00:03:08;99850.13;;;23.94;51.92
45927;BME280;31639;47.614;19.684;2022-08-19T00:08:09;99850.19;;;24.15;51.98
45927;BME280;31639;47.614;19.684;2022-08-19T00:13:09;99835.84;;;24.24;52.18
45927;BME280;31639;47.614;19.684;2022-08-19T00:18:10;99830.25;;;24.29;52.18
45927;BME280;31639;47.614;19.684;2022-08-19T00:23:11;99824.09;;;24.28;52.21
45927;BME280;31639;47.614;19.684;2022-08-19T00:28:11;99808.41;;;24.22;52.08
45927;BME280;31639;47.614;19.684;2022-08-19T00:33:12;99804.69;;;24.14;51.96
45927;BME280;31639;47.614;19.684;2022-08-19T00:38:13;99800.28;;;24.09;52.28
45927;BME280;31639;47.614;19.684;2022-08-19T00:43:18;99802.31;;;24.12;52.28
45927;BME280;31639;47.614;19.684;2022-08-19T00:48:20;99806.53;;;24.22;52.94
45927;BME280;31639;47.614;19.684;2022-08-19T00:53:23;99807.09;;;24.28;52.99
45927;BME280;31639;47.614;19.684;2022-08-19T00:58:26;99814.91;;;24.42;52.83
45927;BME280;31639;47.614;19.684;2022-08-19T01:03:27;99826.09;;;24.53;52.57
45927;BME280;31639;47.614;19.684;2022-08-19T01:08:28;99833.44;;;24.64;52.28
45927;BME280;31639;47.614;19.684;2022-08-19T01:13:31;99827.34;;;24.68;52.10
45927;BME280;31639;47.614;19.684;2022-08-19T01:18:36;99823.41;;;24.65;52.24
45927;BME280;31639;47.614;19.684;2022-08-19T01:23:38;99817.34;;;24.56;52.20
45927;BME280;31639;47.614;19.684;2022-08-19T01:28:45;99809.75;;;24.49;52.29
45927;BME280;31639;47.614;19.684;2022-08-19T01:33:46;99788.34;;;24.31;52.66
45927;BME280;31639;47.614;19.684;2022-08-19T01:38:46;99780.78;;;24.12;53.25
45927;BME280;31639;47.614;19.684;2022-08-19T01:43:49;99771.84;;;23.99;53.50
45927;BME280;31639;47.614;19.684;2022-08-19T01:48:49;99777.72;;;23.93;53.53
45927;BME280;31639;47.614;19.684;2022-08-19T01:53:50;99799.81;;;23.86;53.62
45927;BME280;31639;47.614;19.684;2022-08-19T01:58:55;99794.41;;;23.86;53.84
45927;BME280;31639;47.614;19.684;2022-08-19T02:03:58;99784.06;;;23.97;53.97
45927;BME280;31639;47.614;19.684;2022-08-19T02:09:00;99798.91;;;24.03;53.74
45927;BME280;31639;47.614;19.684;2022-08-19T02:14:03;99783.13;;;23.93;54.00
45927;BME280;31639;47.614;19.684;2022-08-19T02:19:04;99777.00;;;23.83;54.14
45927;BME280;31639;47.614;19.684;2022-08-19T02:24:04;99768.38;;;23.69;54.38
45927;BME280;31639;47.614;19.684;2022-08-19T02:29:05;99768.06;;;23.70;54.39
45927;BME280;31639;47.614;19.684;2022-08-19T02:34:05;99780.09;;;23.73;54.27
45927;BME280;31639;47.614;19.684;2022-08-19T02:39:06;99788.28;;;23.55;54.56
45927;BME280;31639;47.614;19.684;2022-08-19T02:44:06;99781.63;;;23.23;54.80
45927;BME280;31639;47.614;19.684;2022-08-19T02:49:07;99759.47;;;23.17;55.28
45927;BME280;31639;47.614;19.684;2022-08-19T02:54:09;99742.19;;;23.27;55.56
45927;BME280;31639;47.614;19.684;2022-08-19T02:59:11;99749.69;;;23.21;55.79
45927;BME280;31639;47.614;19.684;2022-08-19T03:04:13;99762.50;;;23.24;55.72
45927;BME280;31639;47.614;19.684;2022-08-19T03:09:15;99759.69;;;23.42;55.86
45927;BME280;31639;47.614;19.684;2022-08-19T03:14:15;99772.72;;;23.61;55.60
45927;BME280;31639;47.614;19.684;2022-08-19T03:19:18;99783.06;;;23.80;55.16
45927;BME280;31639;47.614;19.684;2022-08-19T03:24:19;99804.50;;;23.98;54.73
45927;BME280;31639;47.614;19.684;2022-08-19T03:29:20;99810.59;;;24.07;54.38
45927;BME280;31639;47.614;19.684;2022-08-19T03:34:26;99818.50;;;24.12;54.16
45927;BME280;31639;47.614;19.684;2022-08-19T03:39:26;99810.72;;;24.11;54.04
45927;BME280;31639;47.614;19.684;2022-08-19T03:44:28;99819.63;;;24.11;53.93
45927;BME280;31639;47.614;19.684;2022-08-19T03:49:31;99828.16;;;24.13;53.52
45927;BME280;31639;47.614;19.684;2022-08-19T03:54:33;99831.78;;;24.17;53.62
45927;BME280;31639;47.614;19.684;2022-08-19T03:59:35;99835.72;;;24.20;53.47
45927;BME280;31639;47.614;19.684;2022-08-19T04:04:37;99832.81;;;24.25;53.39
45927;BME280;31639;47.614;19.684;2022-08-19T04:09:38;99849.69;;;24.34;53.13
45927;BME280;31639;47.614;19.684;2022-08-19T04:14:39;99849.50;;;24.40;53.00
45927;BME280;31639;47.614;19.684;2022-08-19T04:19:40;99840.88;;;24.46;52.91
45927;BME280;31639;47.614;19.684;2022-08-19T04:24:43;99841.72;;;24.59;52.53
45927;BME280;31639;47.614;19.684;2022-08-19T04:29:44;99842.13;;;24.70;52.15
45927;BME280;31639;47.614;19.684;2022-08-19T04:34:44;99849.91;;;24.84;51.90
45927;BME280;31639;47.614;19.684;2022-08-19T04:39:44;99851.06;;;24.95;51.84
45927;BME280;31639;47.614;19.684;2022-08-19T04:45:09;99861.31;;;25.15;51.23
45927;BME280;31639;47.614;19.684;2022-08-19T04:50:10;99862.38;;;25.35;50.82
45927;BME280;31639;47.614;19.684;2022-08-19T04:55:12;99856.44;;;25.54;50.52
45927;BME280;31639;47.614;19.684;2022-08-19T05:00:13;99858.22;;;25.75;49.80
45927;BME280;31639;47.614;19.684;2022-08-19T05:05:14;99870.13;;;25.98;49.40
45927;BME280;31639;47.614;19.684;2022-08-19T05:10:15;99857.94;;;26.17;48.81
45927;BME280;31639;47.614;19.684;2022-08-19T05:15:15;99862.19;;;26.30;48.63
45927;BME280;31639;47.614;19.684;2022-08-19T05:20:16;99852.56;;;26.45;48.01
45927;BME280;31639;47.614;19.684;2022-08-19T05:25:39;99865.66;;;26.59;47.43
45927;BME280;31639;47.614;19.684;2022-08-19T05:30:42;99866.75;;;26.71;47.19
45927;BME280;31639;47.614;19.684;2022-08-19T05:35:45;99868.50;;;26.79;47.02
45927;BME280;31639;47.614;19.684;2022-08-19T05:40:46;99872.03;;;26.96;46.52
45927;BME280;31639;47.614;19.684;2022-08-19T05:45:48;99863.84;;;27.08;46.15
45927;BME280;31639;47.614;19.684;2022-08-19T05:50:50;99863.84;;;27.24;45.94
45927;BME280;31639;47.614;19.684;2022-08-19T05:55:51;99862.34;;;27.43;45.45
45927;BME280;31639;47.614;19.684;2022-08-19T06:00:51;99846.03;;;27.55;45.36
45927;BME280;31639;47.614;19.684;2022-08-19T06:05:53;99839.78;;;27.71;44.91
45927;BME280;31639;47.614;19.684;2022-08-19T06:10:55;99847.25;;;27.93;44.56
45927;BME280;31639;47.614;19.684;2022-08-19T06:15:55;99854.63;;;28.13;44.17
45927;BME280;31639;47.614;19.684;2022-08-19T06:20:56;99865.19;;;28.37;43.75
45927;BME280;31639;47.614;19.684;2022-08-19T06:25:56;99856.25;;;28.56;43.20
45927;BME280;31639;47.614;19.684;2022-08-19T06:30:57;99876.88;;;28.81;42.56
45927;BME280;31639;47.614;19.684;2022-08-19T06:35:57;99862.75;;;29.18;42.05
45927;BME280;31639;47.614;19.684;2022-08-19T06:41:04;99875.09;;;29.62;41.53
45927;BME280;31639;47.614;19.684;2022-08-19T06:46:10;99872.06;;;29.94;40.49
45927;BME280;31639;47.614;19.684;2022-08-19T06:51:14;99872.91;;;30.32;40.10
45927;BME280;31639;47.614;19.684;2022-08-19T06:56:17;99878.53;;;30.47;38.78
45927;BME280;31639;47.614;19.684;2022-08-19T07:01:19;99879.44;;;30.58;38.33
45927;BME280;31639;47.614;19.684;2022-08-19T07:06:20;99878.09;;;30.79;38.20
45927;BME280;31639;47.614;19.684;2022-08-19T07:11:20;99876.78;;;31.07;37.52
45927;BME280;31639;47.614;19.684;2022-08-19T07:16:21;99889.13;;;31.38;36.85
45927;BME280;31639;47.614;19.684;2022-08-19T07:21:24;99878.78;;;31.62;36.73
45927;BME280;31639;47.614;19.684;2022-08-19T07:26:29;99876.22;;;31.84;36.39
45927;BME280;31639;47.614;19.684;2022-08-19T07:31:30;99870.97;;;32.31;35.65
45927;BME280;31639;47.614;19.684;2022-08-19T07:36:32;99871.81;;;32.68;35.11
45927;BME280;31639;47.614;19.684;2022-08-19T07:41:35;99855.88;;;32.95;34.22
45927;BME280;31639;47.614;19.684;2022-08-19T07:46:39;99873.06;;;33.32;33.57
45927;BME280;31639;47.614;19.684;2022-08-19T07:51:40;99872.94;;;33.86;32.64
45927;BME280;31639;47.614;19.684;2022-08-19T07:56:40;99872.47;;;34.84;31.03
45927;BME280;31639;47.614;19.684;2022-08-19T08:01:41;99864.44;;;36.22;29.23
45927;BME280;31639;47.614;19.684;2022-08-19T08:06:41;99856.91;;;37.29;27.17
45927;BME280;31639;47.614;19.684;2022-08-19T08:12:05;99860.94;;;38.25;26.00
45927;BME280;31639;47.614;19.684;2022-08-19T08:17:07;99875.03;;;38.97;24.62
45927;BME280;31639;47.614;19.684;2022-08-19T08:22:09;99867.88;;;39.46;24.27
45927;BME280;31639;47.614;19.684;2022-08-19T08:27:30;99857.28;;;39.44;24.18
45927;BME280;31639;47.614;19.684;2022-08-19T08:32:31;99845.19;;;39.08;24.39
45927;BME280;31639;47.614;19.684;2022-08-19T08:37:31;99838.75;;;38.66;24.48
45927;BME280;31639;47.614;19.684;2022-08-19T08:42:35;99849.13;;;38.61;24.45
45927;BME280;31639;47.614;19.684;2022-08-19T08:47:40;99840.69;;;38.85;24.36
45927;BME280;31639;47.614;19.684;2022-08-19T08:52:47;99851.63;;;39.18;23.85
45927;BME280;31639;47.614;19.684;2022-08-19T09:02:50;99864.63;;;39.93;22.87
45927;BME280;31639;47.614;19.684;2022-08-19T09:08:02;99862.53;;;40.62;22.20
45927;BME280;31639;47.614;19.684;2022-08-19T09:18:48;99842.63;;;42.82;19.07
45927;BME280;31639;47.614;19.684;2022-08-19T09:23:53;99843.34;;;44.19;17.89
45927;BME280;31639;47.614;19.684;2022-08-19T09:28:54;99857.16;;;45.41;16.08
45927;BME280;31639;47.614;19.684;2022-08-19T09:33:55;99856.47;;;46.06;15.77
45927;BME280;31639;47.614;19.684;2022-08-19T09:38:59;99852.84;;;43.32;17.97
45927;BME280;31639;47.614;19.684;2022-08-19T09:44:02;99836.81;;;41.67;19.88
45927;BME280;31639;47.614;19.684;2022-08-19T09:49:04;99830.31;;;41.39;20.47
45927;BME280;31639;47.614;19.684;2022-08-19T09:54:06;99806.00;;;41.33;20.38
45927;BME280;31639;47.614;19.684;2022-08-19T09:59:06;99799.06;;;41.51;20.07
45927;BME280;31639;47.614;19.684;2022-08-19T10:04:07;99813.41;;;41.59;20.08
45927;BME280;31639;47.614;19.684;2022-08-19T10:09:10;99810.66;;;41.90;20.09
45927;BME280;31639;47.614;19.684;2022-08-19T10:14:11;99811.19;;;42.07;19.05
45927;BME280;31639;47.614;19.684;2022-08-19T10:19:11;99812.13;;;42.82;18.75
45927;BME280;31639;47.614;19.684;2022-08-19T10:24:12;99796.09;;;47.70;14.57
45927;BME280;31639;47.614;19.684;2022-08-19T10:29:12;99786.97;;;50.46;12.51
45927;BME280;31639;47.614;19.684;2022-08-19T10:34:15;99788.25;;;51.24;11.58
45927;BME280;31639;47.614;19.684;2022-08-19T10:39:17;99772.34;;;50.65;12.36
45927;BME280;31639;47.614;19.684;2022-08-19T10:44:18;99765.56;;;46.29;15.74
45927;BME280;31639;47.614;19.684;2022-08-19T10:49:19;99764.53;;;44.71;16.53
45927;BME280;31639;47.614;19.684;2022-08-19T10:54:22;99764.50;;;44.31;17.13
45927;BME280;31639;47.614;19.684;2022-08-19T10:59:27;99759.28;;;44.00;17.07
45927;BME280;31639;47.614;19.684;2022-08-19T11:04:28;99760.53;;;43.99;17.25
45927;BME280;31639;47.614;19.684;2022-08-19T11:09:29;99759.13;;;44.04;17.19
45927;BME280;31639;47.614;19.684;2022-08-19T11:14:29;99749.56;;;43.95;16.84
45927;BME280;31639;47.614;19.684;2022-08-19T11:19:34;99734.75;;;43.98;16.97
45927;BME280;31639;47.614;19.684;2022-08-19T11:24:36;99740.22;;;44.17;16.43
45927;BME280;31639;47.614;19.684;2022-08-19T11:29:40;99744.94;;;44.50;16.47
45927;BME280;31639;47.614;19.684;2022-08-19T11:34:40;99739.03;;;44.72;16.28
45927;BME280;31639;47.614;19.684;2022-08-19T11:39:41;99742.88;;;45.65;15.16
45927;BME280;31639;47.614;19.684;2022-08-19T11:44:41;99733.53;;;49.17;12.83
45927;BME280;31639;47.614;19.684;2022-08-19T11:49:41;99730.59;;;50.86;11.84
45927;BME280;31639;47.614;19.684;2022-08-19T11:54:42;99741.38;;;52.31;10.46
45927;BME280;31639;47.614;19.684;2022-08-19T11:59:48;99733.31;;;52.74;10.04
45927;BME280;31639;47.614;19.684;2022-08-19T12:04:48;99738.00;;;53.44;10.05
45927;BME280;31639;47.614;19.684;2022-08-19T12:09:49;99736.03;;;53.79;9.33
45927;BME280;31639;47.614;19.684;2022-08-19T12:14:49;99716.19;;;54.33;9.47
45927;BME280;31639;47.614;19.684;2022-08-19T12:19:56;99715.34;;;54.25;9.05
45927;BME280;31639;47.614;19.684;2022-08-19T12:24:56;99696.16;;;54.23;9.79
45927;BME280;31639;47.614;19.684;2022-08-19T12:29:58;99693.44;;;54.31;9.64
45927;BME280;31639;47.614;19.684;2022-08-19T12:35:02;99697.00;;;54.74;9.38
45927;BME280;31639;47.614;19.684;2022-08-19T12:40:03;99695.13;;;54.34;9.65
45927;BME280;31639;47.614;19.684;2022-08-19T12:45:04;99700.72;;;53.51;9.79
45927;BME280;31639;47.614;19.684;2022-08-19T12:50:06;99696.56;;;53.25;9.75
45927;BME280;31639;47.614;19.684;2022-08-19T12:55:08;99696.69;;;53.06;9.60
45927;BME280;31639;47.614;19.684;2022-08-19T13:00:15;99700.69;;;53.24;10.09
45927;BME280;31639;47.614;19.684;2022-08-19T13:05:20;99696.28;;;53.29;9.66
45927;BME280;31639;47.614;19.684;2022-08-19T13:10:25;99694.00;;;52.68;10.02
45927;BME280;31639;47.614;19.684;2022-08-19T13:15:28;99685.88;;;53.10;10.01
45927;BME280;31639;47.614;19.684;2022-08-19T13:20:29;99675.50;;;51.63;10.72
45927;BME280;31639;47.614;19.684;2022-08-19T13:25:29;99677.34;;;51.99;10.27
45927;BME280;31639;47.614;19.684;2022-08-19T13:30:30;99672.03;;;51.95;10.21
45927;BME280;31639;47.614;19.684;2022-08-19T13:35:51;99654.19;;;52.45;10.26
45927;BME280;31639;47.614;19.684;2022-08-19T13:40:56;99658.78;;;52.29;9.93
45927;BME280;31639;47.614;19.684;2022-08-19T13:45:56;99656.81;;;51.41;10.82
45927;BME280;31639;47.614;19.684;2022-08-19T13:50:56;99638.66;;;51.67;10.85
45927;BME280;31639;47.614;19.684;2022-08-19T13:55:57;99654.53;;;51.84;10.23
45927;BME280;31639;47.614;19.684;2022-08-19T14:00:58;99649.50;;;52.34;10.36
45927;BME280;31639;47.614;19.684;2022-08-19T14:05:59;99650.25;;;52.34;10.16
45927;BME280;31639;47.614;19.684;2022-08-19T14:10:59;99653.28;;;52.36;9.93
45927;BME280;31639;47.614;19.684;2022-08-19T14:16:00;99650.25;;;52.34;9.88
45927;BME280;31639;47.614;19.684;2022-08-19T14:21:00;99640.00;;;51.79;9.90
45927;BME280;31639;47.614;19.684;2022-08-19T14:26:10;99629.44;;;51.86;10.05
45927;BME280;31639;47.614;19.684;2022-08-19T14:31:13;99614.41;;;51.83;9.99
45927;BME280;31639;47.614;19.684;2022-08-19T14:36:18;99607.91;;;51.31;10.46
45927;BME280;31639;47.614;19.684;2022-08-19T14:41:21;99606.03;;;50.89;10.99
45927;BME280;31639;47.614;19.684;2022-08-19T14:46:24;99597.91;;;50.55;10.70
45927;BME280;31639;47.614;19.684;2022-08-19T14:51:25;99594.56;;;50.26;11.31
45927;BME280;31639;47.614;19.684;2022-08-19T14:56:28;99586.22;;;50.15;11.29
45927;BME280;31639;47.614;19.684;2022-08-19T15:01:29;99582.41;;;50.12;10.72
45927;BME280;31639;47.614;19.684;2022-08-19T15:06:29;99573.56;;;49.49;11.33
45927;BME280;31639;47.614;19.684;2022-08-19T15:11:30;99570.97;;;48.75;11.70
45927;BME280;31639;47.614;19.684;2022-08-19T15:16:32;99565.81;;;47.94;12.19
45927;BME280;31639;47.614;19.684;2022-08-19T15:21:33;99572.94;;;47.35;12.64
45927;BME280;31639;47.614;19.684;2022-08-19T15:26:33;99566.59;;;44.72;14.16
45927;BME280;31639;47.614;19.684;2022-08-19T15:31:33;99581.84;;;43.01;15.73
45927;BME280;31639;47.614;19.684;2022-08-19T15:36:36;99585.28;;;41.47;16.99
45927;BME280;31639;47.614;19.684;2022-08-19T15:41:36;99595.97;;;40.28;18.21
45927;BME280;31639;47.614;19.684;2022-08-19T15:46:40;99615.13;;;39.35;19.12
45927;BME280;31639;47.614;19.684;2022-08-19T15:51:42;99623.56;;;38.60;19.70
45927;BME280;31639;47.614;19.684;2022-08-19T15:56:43;99641.53;;;38.18;20.41
45927;BME280;31639;47.614;19.684;2022-08-19T16:02:02;99665.59;;;36.88;23.96
45927;BME280;31639;47.614;19.684;2022-08-19T16:07:21;99660.19;;;35.30;27.02
45927;BME280;31639;47.614;19.684;2022-08-19T16:12:21;99666.72;;;34.25;27.85
45927;BME280;31639;47.614;19.684;2022-08-19T16:17:26;99664.47;;;33.46;28.44
45927;BME280;31639;47.614;19.684;2022-08-19T16:22:28;99653.31;;;32.93;29.38
45927;BME280;31639;47.614;19.684;2022-08-19T16:27:30;99649.47;;;32.58;29.19
45927;BME280;31639;47.614;19.684;2022-08-19T16:32:30;99638.59;;;32.29;29.41
45927;BME280;31639;47.614;19.684;2022-08-19T16:37:31;99636.59;;;32.15;29.68
45927;BME280;31639;47.614;19.684;2022-08-19T16:42:31;99650.66;;;32.02;29.91
45927;BME280;31639;47.614;19.684;2022-08-19T16:47:34;99651.03;;;31.94;30.21
45927;BME280;31639;47.614;19.684;2022-08-19T16:52:34;99654.13;;;31.89;30.56
45927;BME280;31639;47.614;19.684;2022-08-19T16:57:35;99663.84;;;31.75;31.42
45927;BME280;31639;47.614;19.684;2022-08-19T17:02:36;99678.97;;;31.62;31.81
45927;BME280;31639;47.614;19.684;2022-08-19T17:07:38;99691.78;;;31.47;32.74
45927;BME280;31639;47.614;19.684;2022-08-19T17:12:38;99694.84;;;31.38;33.01
45927;BME280;31639;47.614;19.684;2022-08-19T17:17:39;99709.25;;;31.31;33.63
45927;BME280;31639;47.614;19.684;2022-08-19T17:22:40;99730.97;;;31.20;33.63
45927;BME280;31639;47.614;19.684;2022-08-19T17:27:41;99739.41;;;31.08;32.47
45927;BME280;31639;47.614;19.684;2022-08-19T17:32:41;99754.59;;;31.05;31.76
45927;BME280;31639;47.614;19.684;2022-08-19T17:37:41;99763.91;;;31.04;31.82
45927;BME280;31639;47.614;19.684;2022-08-19T17:42:43;99766.22;;;30.99;31.55
45927;BME280;31639;47.614;19.684;2022-08-19T17:47:43;99759.56;;;30.92;31.29
45927;BME280;31639;47.614;19.684;2022-08-19T17:52:44;99739.25;;;30.82;31.66
45927;BME280;31639;47.614;19.684;2022-08-19T17:57:44;99736.44;;;30.68;31.67
45927;BME280;31639;47.614;19.684;2022-08-19T18:02:58;99715.19;;;30.43;31.96
45927;BME280;31639;47.614;19.684;2022-08-19T18:08:00;99705.41;;;30.35;32.10
45927;BME280;31639;47.614;19.684;2022-08-19T18:13:01;99702.38;;;30.44;31.69
45927;BME280;31639;47.614;19.684;2022-08-19T18:18:01;99726.75;;;30.29;31.46
45927;BME280;31639;47.614;19.684;2022-08-19T18:23:02;99722.38;;;30.21;31.96
45927;BME280;31639;47.614;19.684;2022-08-19T18:28:02;99716.00;;;30.06;32.00
45927;BME280;31639;47.614;19.684;2022-08-19T18:33:05;99703.94;;;30.03;32.54
45927;BME280;31639;47.614;19.684;2022-08-19T18:38:17;99717.94;;;30.02;32.73
45927;BME280;31639;47.614;19.684;2022-08-19T18:43:36;99721.53;;;30.13;32.41
45927;BME280;31639;47.614;19.684;2022-08-19T18:48:55;99724.16;;;30.02;32.31
45927;BME280;31639;47.614;19.684;2022-08-19T18:54:04;99722.38;;;29.83;32.72
45927;BME280;31639;47.614;19.684;2022-08-19T18:59:04;99750.22;;;29.76;33.09
45927;BME280;31639;47.614;19.684;2022-08-19T19:04:07;99793.69;;;29.73;33.04
45927;BME280;31639;47.614;19.684;2022-08-19T19:09:14;99822.44;;;29.74;33.24
45927;BME280;31639;47.614;19.684;2022-08-19T19:14:21;99829.75;;;29.70;33.12
45927;BME280;31639;47.614;19.684;2022-08-19T19:19:22;99866.34;;;29.49;33.03
45927;BME280;31639;47.614;19.684;2022-08-19T19:24:26;99874.84;;;29.21;33.94
45927;BME280;31639;47.614;19.684;2022-08-19T19:29:31;99881.53;;;28.80;35.50
45927;BME280;31639;47.614;19.684;2022-08-19T19:34:32;99895.16;;;28.45;36.28
45927;BME280;31639;47.614;19.684;2022-08-19T19:39:33;99873.63;;;28.32;36.40
45927;BME280;31639;47.614;19.684;2022-08-19T19:44:37;99876.59;;;28.27;36.51
45927;BME280;31639;47.614;19.684;2022-08-19T19:49:38;99845.19;;;28.26;36.58
45927;BME280;31639;47.614;19.684;2022-08-19T19:54:40;99866.63;;;28.31;36.56
45927;BME280;31639;47.614;19.684;2022-08-19T19:59:41;99870.19;;;28.16;36.97
45927;BME280;31639;47.614;19.684;2022-08-19T20:04:43;99882.28;;;28.02;37.57
45927;BME280;31639;47.614;19.684;2022-08-19T20:09:43;99859.44;;;28.03;37.85
45927;BME280;31639;47.614;19.684;2022-08-19T20:14:43;99844.34;;;28.02;38.05
45927;BME280;31639;47.614;19.684;2022-08-19T20:19:44;99848.19;;;28.01;38.41
45927;BME280;31639;47.614;19.684;2022-08-19T20:24:44;99847.75;;;27.99;38.39
45927;BME280;31639;47.614;19.684;2022-08-19T20:29:44;99864.84;;;28.03;38.12
45927;BME280;31639;47.614;19.684;2022-08-19T20:34:45;99865.03;;;28.10;38.16
45927;BME280;31639;47.614;19.684;2022-08-19T20:39:48;99892.22;;;28.14;38.02
45927;BME280;31639;47.614;19.684;2022-08-19T20:44:48;99944.00;;;28.09;38.01
45927;BME280;31639;47.614;19.684;2022-08-19T20:49:49;100020.75;;;27.93;38.18
45927;BME280;31639;47.614;19.684;2022-08-19T20:54:50;100007.34;;;27.53;40.67
45927;BME280;31639;47.614;19.684;2022-08-19T20:59:51;100010.88;;;27.25;42.39
45927;BME280;31639;47.614;19.684;2022-08-19T21:04:51;99990.91;;;27.01;43.81
45927;BME280;31639;47.614;19.684;2022-08-19T21:09:51;99981.97;;;26.72;45.79
45927;BME280;31639;47.614;19.684;2022-08-19T21:14:52;99994.09;;;26.37;47.45
45927;BME280;31639;47.614;19.684;2022-08-19T21:19:52;99971.22;;;26.10;49.41
45927;BME280;31639;47.614;19.684;2022-08-19T21:24:53;99974.97;;;25.93;50.40
45927;BME280;31639;47.614;19.684;2022-08-19T21:29:53;99954.81;;;25.78;51.72
45927;BME280;31639;47.614;19.684;2022-08-19T21:34:54;99949.84;;;25.67;51.70
45927;BME280;31639;47.614;19.684;2022-08-19T21:39:54;99938.34;;;25.70;51.37
45927;BME280;31639;47.614;19.684;2022-08-19T21:44:55;99937.03;;;25.77;51.52
45927;BME280;31639;47.614;19.684;2022-08-19T21:49:56;99911.03;;;25.72;52.09
45927;BME280;31639;47.614;19.684;2022-08-19T21:54:56;99906.19;;;25.65;52.54
45927;BME280;31639;47.614;19.684;2022-08-19T21:59:57;99905.59;;;25.60;53.86
45927;BME280;31639;47.614;19.684;2022-08-19T22:04:57;99896.91;;;25.42;55.07
45927;BME280;31639;47.614;19.684;2022-08-19T22:09:57;99896.78;;;25.25;56.90
45927;BME280;31639;47.614;19.684;2022-08-19T22:14:58;99897.31;;;25.06;58.65
45927;BME280;31639;47.614;19.684;2022-08-19T22:19:59;99899.53;;;24.92;59.71
45927;BME280;31639;47.614;19.684;2022-08-19T22:25:04;99891.94;;;24.85;60.38
45927;BME280;31639;47.614;19.684;2022-08-19T22:30:08;99880.72;;;24.83;60.87
45927;BME280;31639;47.614;19.684;2022-08-19T22:35:09;99869.78;;;24.79;61.56
45927;BME280;31639;47.614;19.684;2022-08-19T22:40:11;99856.84;;;24.73;62.47
45927;BME280;31639;47.614;19.684;2022-08-19T22:45:15;99846.56;;;24.66;62.90
45927;BME280;31639;47.614;19.684;2022-08-19T22:50:16;99842.66;;;24.63;63.04
45927;BME280;31639;47.614;19.684;2022-08-19T22:55:16;99830.13;;;24.59;63.25
45927;BME280;31639;47.614;19.684;2022-08-19T23:00:16;99820.47;;;24.58;63.83
45927;BME280;31639;47.614;19.684;2022-08-19T23:05:17;99814.84;;;24.50;65.03
45927;BME280;31639;47.614;19.684;2022-08-19T23:10:19;99808.06;;;24.44;65.55
45927;BME280;31639;47.614;19.684;2022-08-19T23:15:22;99797.16;;;24.41;66.28
45927;BME280;31639;47.614;19.684;2022-08-19T23:20:30;99777.75;;;24.47;65.96
45927;BME280;31639;47.614;19.684;2022-08-19T23:25:33;99770.69;;;24.55;65.78
45927;BME280;31639;47.614;19.684;2022-08-19T23:30:37;99770.94;;;24.62;65.12
45927;BME280;31639;47.614;19.684;2022-08-19T23:35:38;99768.91;;;24.59;65.34
45927;BME280;31639;47.614;19.684;2022-08-19T23:40:40;99758.69;;;24.65;65.04
45927;BME280;31639;47.614;19.684;2022-08-19T23:45:40;99765.94;;;24.73;64.31
45927;BME280;31639;47.614;19.684;2022-08-19T23:50:43;99765.38;;;24.80;63.48
45927;BME280;31639;47.614;19.684;2022-08-19T23:55:46;99759.44;;;24.87;62.88
